sensor_id;sensor_type;location;lat;lon;timestamp;pressure;altitude;pressure_sealevel;temperature;humidity
23307;BME280;11822;52.470;10.688;2022-10-16T00:01:21;100366.25;;;17.16;60.23
23307;BME280;11822;52.470;10.688;2022-10-16T00:03:47;100367.78;;;17.13;60.24
23307;BME280;11822;52.470;10.688;2022-10-16T00:06:12;100366.59;;;17.10;60.01
23307;BME280;11822;52.470;10.688;2022-10-16T00:08:38;100366.56;;;17.07;60.13
23307;BME280;11822;52.470;10.688;2022-10-16T00:11:08;100364.56;;;17.04;60.19
23307;BME280;11822;52.470;10.688;2022-10-16T00:13:34;100374.03;;;17.03;60.13
23307;BME280;11822;52.470;10.688;2022-10-16T00:16:00;100368.50;;;16.99;59.97
23307;BME280;11822;52.470;10.688;2022-10-16T00:18:26;100368.88;;;16.97;60.32
23307;BME280;11822;52.470;10.688;2022-10-16T00:20:51;100368.44;;;16.95;59.97
23307;BME280;11822;52.470;10.688;2022-10-16T00:23:16;100369.59;;;16.94;59.89
23307;BME280;11822;52.470;10.688;2022-10-16T00:25:42;100373.53;;;16.93;59.99
23307;BME280;11822;52.470;10.688;2022-10-16T00:28:07;100377.88;;;16.91;59.99
23307;BME280;11822;52.470;10.688;2022-10-16T00:30:33;100375.47;;;16.89;59.96
23307;BME280;11822;52.470;10.688;2022-10-16T00:32:58;100386.50;;;16.86;60.08
23307;BME280;11822;52.470;10.688;2022-10-16T00:35:23;100378.97;;;16.82;60.09
23307;BME280;11822;52.470;10.688;2022-10-16T00:37:48;100379.75;;;16.79;60.06
23307;BME280;11822;52.470;10.688;2022-10-16T00:40:13;100384.44;;;16.75;60.08
23307;BME280;11822;52.470;10.688;2022-10-16T00:42:39;100387.97;;;16.72;60.17
23307;BME280;11822;52.470;10.688;2022-10-16T00:45:04;100393.81;;;16.67;60.06
23307;BME280;11822;52.470;10.688;2022-10-16T00:47:32;100386.69;;;16.62;59.90
23307;BME280;11822;52.470;10.688;2022-10-16T00:50:09;100393.75;;;16.60;60.14
23307;BME280;11822;52.470;10.688;2022-10-16T00:52:36;100390.16;;;16.52;60.22
23307;BME280;11822;52.470;10.688;2022-10-16T00:55:04;100389.28;;;16.44;60.11
23307;BME280;11822;52.470;10.688;2022-10-16T00:57:31;100397.53;;;16.40;60.16
23307;BME280;11822;52.470;10.688;2022-10-16T00:59:56;100399.47;;;16.40;60.19
23307;BME280;11822;52.470;10.688;2022-10-16T01:02:21;100411.66;;;16.39;60.47
23307;BME280;11822;52.470;10.688;2022-10-16T01:04:48;100410.13;;;16.42;60.08
23307;BME280;11822;52.470;10.688;2022-10-16T01:07:18;100412.50;;;16.43;60.20
23307;BME280;11822;52.470;10.688;2022-10-16T01:12:31;100403.06;;;16.44;60.41
23307;BME280;11822;52.470;10.688;2022-10-16T01:15:01;100413.31;;;16.44;60.12
23307;BME280;11822;52.470;10.688;2022-10-16T01:17:31;100415.25;;;16.43;60.03
23307;BME280;11822;52.470;10.688;2022-10-16T01:25:05;100424.25;;;16.36;60.14
23307;BME280;11822;52.470;10.688;2022-10-16T01:27:34;100420.66;;;16.32;60.29
23307;BME280;11822;52.470;10.688;2022-10-16T01:30:07;100406.06;;;16.28;60.60
23307;BME280;11822;52.470;10.688;2022-10-16T01:32:40;100410.31;;;16.22;60.46
23307;BME280;11822;52.470;10.688;2022-10-16T01:35:11;100411.88;;;16.19;60.76
23307;BME280;11822;52.470;10.688;2022-10-16T01:38:39;100400.44;;;16.17;60.89
23307;BME280;11822;52.470;10.688;2022-10-16T01:40:34;100397.69;;;16.17;60.99
23307;BME280;11822;52.470;10.688;2022-10-16T01:43:03;100401.59;;;16.16;60.76
23307;BME280;11822;52.470;10.688;2022-10-16T01:45:30;100401.59;;;16.16;60.80
23307;BME280;11822;52.470;10.688;2022-10-16T01:47:56;100397.69;;;16.17;60.85
23307;BME280;11822;52.470;10.688;2022-10-16T01:50:23;100413.81;;;16.19;60.99
23307;BME280;11822;52.470;10.688;2022-10-16T01:52:49;100412.66;;;16.20;60.87
23307;BME280;11822;52.470;10.688;2022-10-16T01:55:24;100415.81;;;16.22;60.98
23307;BME280;11822;52.470;10.688;2022-10-16T01:57:51;100409.56;;;16.25;60.92
23307;BME280;11822;52.470;10.688;2022-10-16T02:00:19;100408.81;;;16.28;60.86
23307;BME280;11822;52.470;10.688;2022-10-16T02:02:46;100411.63;;;16.32;60.76
23307;BME280;11822;52.470;10.688;2022-10-16T02:07:39;100419.16;;;16.38;60.96
23307;BME280;11822;52.470;10.688;2022-10-16T02:10:06;100419.16;;;16.38;60.69
23307;BME280;11822;52.470;10.688;2022-10-16T02:12:32;100419.53;;;16.37;61.08
23307;BME280;11822;52.470;10.688;2022-10-16T02:14:58;100419.50;;;16.33;61.17
23307;BME280;11822;52.470;10.688;2022-10-16T02:17:23;100426.50;;;16.27;61.28
23307;BME280;11822;52.470;10.688;2022-10-16T02:19:49;100425.31;;;16.24;61.32
23307;BME280;11822;52.470;10.688;2022-10-16T02:22:18;100432.75;;;16.20;61.47
23307;BME280;11822;52.470;10.688;2022-10-16T02:24:52;100439.03;;;16.17;61.47
23307;BME280;11822;52.470;10.688;2022-10-16T02:29:45;100434.69;;;16.16;61.59
23307;BME280;11822;52.470;10.688;2022-10-16T02:32:15;100435.09;;;16.18;61.58
23307;BME280;11822;52.470;10.688;2022-10-16T02:34:42;100436.69;;;16.19;61.66
23307;BME280;11822;52.470;10.688;2022-10-16T02:37:09;100450.88;;;16.21;61.65
23307;BME280;11822;52.470;10.688;2022-10-16T02:39:35;100447.72;;;16.23;61.55
23307;BME280;11822;52.470;10.688;2022-10-16T02:42:01;100458.41;;;16.24;61.69
23307;BME280;11822;52.470;10.688;2022-10-16T02:44:26;100457.22;;;16.25;61.82
23307;BME280;11822;52.470;10.688;2022-10-16T02:46:51;100456.06;;;16.27;61.74
23307;BME280;11822;52.470;10.688;2022-10-16T02:49:17;100471.03;;;16.29;61.96
23307;BME280;11822;52.470;10.688;2022-10-16T02:51:43;100469.88;;;16.30;61.89
23307;BME280;11822;52.470;10.688;2022-10-16T02:54:08;100465.16;;;16.31;61.81
23307;BME280;11822;52.470;10.688;2022-10-16T02:56:33;100460.84;;;16.33;61.63
23307;BME280;11822;52.470;10.688;2022-10-16T02:58:58;100478.59;;;16.36;61.89
23307;BME280;11822;52.470;10.688;2022-10-16T03:01:23;100473.91;;;16.40;61.80
23307;BME280;11822;52.470;10.688;2022-10-16T03:03:49;100465.28;;;16.45;61.88
23307;BME280;11822;52.470;10.688;2022-10-16T03:06:14;100466.53;;;16.48;61.40
23307;BME280;11822;52.470;10.688;2022-10-16T03:08:39;100468.47;;;16.47;61.42
23307;BME280;11822;52.470;10.688;2022-10-16T03:11:04;100469.63;;;16.43;61.41
23307;BME280;11822;52.470;10.688;2022-10-16T03:13:30;100471.09;;;16.33;61.34
23307;BME280;11822;52.470;10.688;2022-10-16T03:15:55;100464.66;;;16.21;61.69
23307;BME280;11822;52.470;10.688;2022-10-16T03:18:20;100472.78;;;16.10;61.73
23307;BME280;11822;52.470;10.688;2022-10-16T03:20:46;100461.25;;;16.01;62.30
23307;BME280;11822;52.470;10.688;2022-10-16T03:23:11;100471.00;;;15.95;62.32
23307;BME280;11822;52.470;10.688;2022-10-16T03:25:36;100460.69;;;15.88;62.54
23307;BME280;11822;52.470;10.688;2022-10-16T03:28:01;100450.34;;;15.81;62.69
23307;BME280;11822;52.470;10.688;2022-10-16T03:30:27;100464.88;;;15.78;62.76
23307;BME280;11822;52.470;10.688;2022-10-16T03:32:52;100476.63;;;15.75;62.89
23307;BME280;11822;52.470;10.688;2022-10-16T03:35:19;100463.22;;;15.74;62.69
23307;BME280;11822;52.470;10.688;2022-10-16T03:37:44;100464.38;;;15.73;62.76
23307;BME280;11822;52.470;10.688;2022-10-16T03:40:09;100469.91;;;15.73;62.58
23307;BME280;11822;52.470;10.688;2022-10-16T03:42:35;100474.25;;;15.74;62.80
23307;BME280;11822;52.470;10.688;2022-10-16T03:45:00;100467.94;;;15.73;62.52
23307;BME280;11822;52.470;10.688;2022-10-16T03:47:25;100469.91;;;15.73;62.51
23307;BME280;11822;52.470;10.688;2022-10-16T03:49:50;100471.47;;;15.74;62.40
23307;BME280;11822;52.470;10.688;2022-10-16T03:52:16;100473.88;;;15.75;62.63
23307;BME280;11822;52.470;10.688;2022-10-16T03:54:41;100467.97;;;15.77;62.49
23307;BME280;11822;52.470;10.688;2022-10-16T03:57:06;100459.38;;;15.78;62.25
23307;BME280;11822;52.470;10.688;2022-10-16T03:59:31;100466.81;;;15.78;62.24
23307;BME280;11822;52.470;10.688;2022-10-16T04:01:56;100473.91;;;15.79;62.22
23307;BME280;11822;52.470;10.688;2022-10-16T04:04:22;100478.66;;;15.78;62.32
23307;BME280;11822;52.470;10.688;2022-10-16T04:06:47;100482.19;;;15.79;62.02
23307;BME280;11822;52.470;10.688;2022-10-16T04:09:12;100479.81;;;15.77;62.07
23307;BME280;11822;52.470;10.688;2022-10-16T04:11:37;100480.59;;;15.78;62.24
23307;BME280;11822;52.470;10.688;2022-10-16T04:14:03;100469.97;;;15.76;62.22
23307;BME280;11822;52.470;10.688;2022-10-16T04:16:28;100478.97;;;15.73;62.31
23307;BME280;11822;52.470;10.688;2022-10-16T04:18:54;100477.72;;;15.71;61.99
23307;BME280;11822;52.470;10.688;2022-10-16T04:21:19;100480.06;;;15.69;62.30
23307;BME280;11822;52.470;10.688;2022-10-16T04:23:44;100476.88;;;15.66;62.31
23307;BME280;11822;52.470;10.688;2022-10-16T04:26:09;100479.22;;;15.64;62.30
23307;BME280;11822;52.470;10.688;2022-10-16T04:28:35;100477.22;;;15.61;62.33
23307;BME280;11822;52.470;10.688;2022-10-16T04:31:03;100480.69;;;15.58;62.13
23307;BME280;11822;52.470;10.688;2022-10-16T04:33:28;100479.44;;;15.52;62.12
23307;BME280;11822;52.470;10.688;2022-10-16T04:35:57;100478.22;;;15.49;62.35
23307;BME280;11822;52.470;10.688;2022-10-16T04:38:22;100487.22;;;15.46;62.10
23307;BME280;11822;52.470;10.688;2022-10-16T04:40:48;100492.69;;;15.43;62.31
23307;BME280;11822;52.470;10.688;2022-10-16T04:43:13;100488.69;;;15.40;62.45
23307;BME280;11822;52.470;10.688;2022-10-16T04:45:38;100481.59;;;15.39;62.36
23307;BME280;11822;52.470;10.688;2022-10-16T04:48:03;100481.19;;;15.37;62.27
23307;BME280;11822;52.470;10.688;2022-10-16T04:50:28;100485.91;;;15.36;62.06
23307;BME280;11822;52.470;10.688;2022-10-16T04:52:53;100482.72;;;15.34;62.18
23307;BME280;11822;52.470;10.688;2022-10-16T04:55:19;100490.56;;;15.32;62.29
23307;BME280;11822;52.470;10.688;2022-10-16T04:57:44;100484.25;;;15.32;62.07
23307;BME280;11822;52.470;10.688;2022-10-16T05:00:09;100496.78;;;15.29;62.01
23307;BME280;11822;52.470;10.688;2022-10-16T05:02:35;100488.09;;;15.27;62.18
23307;BME280;11822;52.470;10.688;2022-10-16T05:05:00;100497.88;;;15.25;62.36
23307;BME280;11822;52.470;10.688;2022-10-16T05:07:25;100485.66;;;15.22;62.20
23307;BME280;11822;52.470;10.688;2022-10-16T05:09:50;100496.16;;;15.16;62.35
23307;BME280;11822;52.470;10.688;2022-10-16T05:12:16;100490.13;;;15.07;62.37
23307;BME280;11822;52.470;10.688;2022-10-16T05:14:41;100489.22;;;14.99;62.34
23307;BME280;11822;52.470;10.688;2022-10-16T05:17:06;100501.75;;;14.97;62.30
23307;BME280;11822;52.470;10.688;2022-10-16T05:19:31;100507.19;;;14.93;62.53
23307;BME280;11822;52.470;10.688;2022-10-16T05:21:57;100503.94;;;14.87;62.69
23307;BME280;11822;52.470;10.688;2022-10-16T05:24:22;100511.25;;;14.80;62.65
23307;BME280;11822;52.470;10.688;2022-10-16T05:26:47;100517.44;;;14.73;62.72
23307;BME280;11822;52.470;10.688;2022-10-16T05:29:12;100517.59;;;14.64;63.03
23307;BME280;11822;52.470;10.688;2022-10-16T05:31:38;100528.91;;;14.59;63.26
23307;BME280;11822;52.470;10.688;2022-10-16T05:34:03;100529.28;;;14.57;63.19
23307;BME280;11822;52.470;10.688;2022-10-16T05:36:28;100538.31;;;14.58;63.53
23307;BME280;11822;52.470;10.688;2022-10-16T05:38:53;100534.06;;;14.60;63.46
23307;BME280;11822;52.470;10.688;2022-10-16T05:41:19;100530.19;;;14.65;63.29
23307;BME280;11822;52.470;10.688;2022-10-16T05:43:48;100534.72;;;14.73;63.21
23307;BME280;11822;52.470;10.688;2022-10-16T05:46:14;100536.81;;;14.80;63.17
23307;BME280;11822;52.470;10.688;2022-10-16T05:48:39;100534.13;;;14.84;62.88
23307;BME280;11822;52.470;10.688;2022-10-16T05:51:06;100538.09;;;14.86;62.90
23307;BME280;11822;52.470;10.688;2022-10-16T05:53:32;100542.50;;;14.91;62.73
23307;BME280;11822;52.470;10.688;2022-10-16T05:55:58;100547.66;;;14.92;62.83
23307;BME280;11822;52.470;10.688;2022-10-16T05:58:24;100554.38;;;14.95;62.79
23307;BME280;11822;52.470;10.688;2022-10-16T06:00:53;100555.97;;;14.96;62.71
23307;BME280;11822;52.470;10.688;2022-10-16T06:03:18;100544.22;;;14.99;62.43
23307;BME280;11822;52.470;10.688;2022-10-16T06:05:44;100559.56;;;15.00;62.69
23307;BME280;11822;52.470;10.688;2022-10-16T06:08:09;100566.22;;;14.99;62.68
23307;BME280;11822;52.470;10.688;2022-10-16T06:10:34;100565.81;;;14.97;62.41
23307;BME280;11822;52.470;10.688;2022-10-16T06:12:59;100559.09;;;14.95;62.55
23307;BME280;11822;52.470;10.688;2022-10-16T06:15:24;100573.56;;;14.91;62.48
23307;BME280;11822;52.470;10.688;2022-10-16T06:17:50;100579.41;;;14.90;62.73
23307;BME280;11822;52.470;10.688;2022-10-16T06:20:15;100574.28;;;14.88;62.62
23307;BME280;11822;52.470;10.688;2022-10-16T06:22:40;100555.41;;;14.87;62.63
23307;BME280;11822;52.470;10.688;2022-10-16T06:25:05;100580.53;;;14.85;62.59
23307;BME280;11822;52.470;10.688;2022-10-16T06:27:31;100584.06;;;14.86;62.73
23307;BME280;11822;52.470;10.688;2022-10-16T06:29:56;100571.03;;;14.83;62.55
23307;BME280;11822;52.470;10.688;2022-10-16T06:32:22;100578.84;;;14.81;62.60
23307;BME280;11822;52.470;10.688;2022-10-16T06:34:47;100575.31;;;14.80;62.53
23307;BME280;11822;52.470;10.688;2022-10-16T06:37:12;100583.63;;;14.84;62.60
23307;BME280;11822;52.470;10.688;2022-10-16T06:39:38;100581.72;;;14.88;62.63
23307;BME280;11822;52.470;10.688;2022-10-16T06:42:03;100577.53;;;14.94;62.49
23307;BME280;11822;52.470;10.688;2022-10-16T06:44:28;100576.88;;;15.01;62.48
23307;BME280;11822;52.470;10.688;2022-10-16T06:46:53;100598.22;;;15.07;62.63
23307;BME280;11822;52.470;10.688;2022-10-16T06:49:18;100608.06;;;15.09;62.64
23307;BME280;11822;52.470;10.688;2022-10-16T06:51:47;100613.19;;;15.10;62.69
23307;BME280;11822;52.470;10.688;2022-10-16T06:54:12;100621.88;;;15.12;62.51
23307;BME280;11822;52.470;10.688;2022-10-16T06:56:37;100619.94;;;15.13;62.64
23307;BME280;11822;52.470;10.688;2022-10-16T06:59:03;100621.16;;;15.15;62.77
23307;BME280;11822;52.470;10.688;2022-10-16T07:01:28;100626.72;;;15.19;62.91
23307;BME280;11822;52.470;10.688;2022-10-16T07:03:54;100629.47;;;15.19;63.11
23307;BME280;11822;52.470;10.688;2022-10-16T07:06:20;100626.34;;;15.20;63.31
23307;BME280;11822;52.470;10.688;2022-10-16T07:08:46;100635.03;;;15.22;63.42
23307;BME280;11822;52.470;10.688;2022-10-16T07:11:15;100637.34;;;15.20;63.49
23307;BME280;11822;52.470;10.688;2022-10-16T07:13:41;100633.41;;;15.18;63.61
23307;BME280;11822;52.470;10.688;2022-10-16T07:16:09;100616.06;;;15.17;63.87
23307;BME280;11822;52.470;10.688;2022-10-16T07:18:35;100627.50;;;15.19;64.28
23307;BME280;11822;52.470;10.688;2022-10-16T07:21:05;100640.53;;;15.22;64.16
23307;BME280;11822;52.470;10.688;2022-10-16T07:23:30;100641.50;;;15.30;64.26
23307;BME280;11822;52.470;10.688;2022-10-16T07:25:55;100640.47;;;15.39;64.44
23307;BME280;11822;52.470;10.688;2022-10-16T07:28:21;100646.94;;;15.50;64.67
23307;BME280;11822;52.470;10.688;2022-10-16T07:30:47;100644.38;;;15.61;64.94
23307;BME280;11822;52.470;10.688;2022-10-16T07:33:12;100640.63;;;15.73;64.77
23307;BME280;11822;52.470;10.688;2022-10-16T07:35:37;100646.41;;;15.87;64.79
23307;BME280;11822;52.470;10.688;2022-10-16T07:38:02;100643.47;;;16.00;65.03
23307;BME280;11822;52.470;10.688;2022-10-16T07:40:27;100653.13;;;16.13;64.97
23307;BME280;11822;52.470;10.688;2022-10-16T07:42:53;100655.28;;;16.27;64.63
23307;BME280;11822;52.470;10.688;2022-10-16T07:45:18;100661.38;;;16.40;64.56
23307;BME280;11822;52.470;10.688;2022-10-16T07:47:43;100655.22;;;16.50;64.50
23307;BME280;11822;52.470;10.688;2022-10-16T07:50:08;100664.00;;;16.60;64.68
23307;BME280;11822;52.470;10.688;2022-10-16T07:52:33;100660.97;;;16.68;65.02
23307;BME280;11822;52.470;10.688;2022-10-16T07:54:59;100664.63;;;16.76;64.81
23307;BME280;11822;52.470;10.688;2022-10-16T07:57:24;100665.88;;;16.82;64.82
23307;BME280;11822;52.470;10.688;2022-10-16T07:59:49;100666.31;;;16.88;64.49
23307;BME280;11822;52.470;10.688;2022-10-16T08:02:14;100681.38;;;16.94;64.79
23307;BME280;11822;52.470;10.688;2022-10-16T08:04:39;100677.91;;;16.97;64.46
23307;BME280;11822;52.470;10.688;2022-10-16T08:07:06;100675.97;;;17.02;64.61
23307;BME280;11822;52.470;10.688;2022-10-16T08:09:31;100677.25;;;17.08;64.75
23307;BME280;11822;52.470;10.688;2022-10-16T08:11:56;100678.13;;;17.16;64.47
23307;BME280;11822;52.470;10.688;2022-10-16T08:14:21;100686.47;;;17.23;64.32
23307;BME280;11822;52.470;10.688;2022-10-16T08:16:47;100690.47;;;17.29;64.38
23307;BME280;11822;52.470;10.688;2022-10-16T08:19:12;100686.97;;;17.32;63.99
23307;BME280;11822;52.470;10.688;2022-10-16T08:21:37;100690.19;;;17.38;64.22
23307;BME280;11822;52.470;10.688;2022-10-16T08:24:02;100685.88;;;17.40;64.21
23307;BME280;11822;52.470;10.688;2022-10-16T08:26:27;100691.03;;;17.42;63.84
23307;BME280;11822;52.470;10.688;2022-10-16T08:28:53;100689.03;;;17.42;63.64
23307;BME280;11822;52.470;10.688;2022-10-16T08:31:18;100696.56;;;17.46;63.65
23307;BME280;11822;52.470;10.688;2022-10-16T08:33:44;100695.88;;;17.52;63.31
23307;BME280;11822;52.470;10.688;2022-10-16T08:36:11;100711.72;;;17.59;63.35
23307;BME280;11822;52.470;10.688;2022-10-16T08:38:37;100707.84;;;17.67;63.35
23307;BME280;11822;52.470;10.688;2022-10-16T08:48:51;100714.41;;;17.97;62.56
23307;BME280;11822;52.470;10.688;2022-10-16T08:51:19;100710.97;;;18.04;62.48
23307;BME280;11822;52.470;10.688;2022-10-16T08:53:53;100716.91;;;18.06;61.99
23307;BME280;11822;52.470;10.688;2022-10-16T08:56:19;100719.69;;;18.06;61.89
23307;BME280;11822;52.470;10.688;2022-10-16T08:58:48;100722.44;;;18.06;62.01
23307;BME280;11822;52.470;10.688;2022-10-16T09:01:14;100724.03;;;18.10;61.59
23307;BME280;11822;52.470;10.688;2022-10-16T09:06:17;100728.06;;;18.20;61.56
23307;BME280;11822;52.470;10.688;2022-10-16T09:11:50;100741.94;;;18.27;61.10
23307;BME280;11822;52.470;10.688;2022-10-16T09:17:06;100746.28;;;18.28;61.06
23307;BME280;11822;52.470;10.688;2022-10-16T09:19:38;100749.47;;;18.30;60.77
23307;BME280;11822;52.470;10.688;2022-10-16T09:22:14;100754.22;;;18.30;60.73
23307;BME280;11822;52.470;10.688;2022-10-16T09:24:40;100753.81;;;18.28;60.67
23307;BME280;11822;52.470;10.688;2022-10-16T09:27:08;100752.22;;;18.27;60.64
23307;BME280;11822;52.470;10.688;2022-10-16T09:29:35;100750.63;;;18.26;60.45
23307;BME280;11822;52.470;10.688;2022-10-16T09:32:07;100752.19;;;18.23;60.41
23307;BME280;11822;52.470;10.688;2022-10-16T09:34:36;100754.16;;;18.23;60.40
23307;BME280;11822;52.470;10.688;2022-10-16T09:37:04;100752.19;;;18.23;60.31
23307;BME280;11822;52.470;10.688;2022-10-16T09:39:43;100762.06;;;18.24;60.57
23307;BME280;11822;52.470;10.688;2022-10-16T09:42:10;100767.63;;;18.28;60.70
23307;BME280;11822;52.470;10.688;2022-10-16T09:44:35;100758.56;;;18.31;60.47
23307;BME280;11822;52.470;10.688;2022-10-16T09:47:05;100771.25;;;18.36;60.31
23307;BME280;11822;52.470;10.688;2022-10-16T09:49:32;100772.88;;;18.40;60.04
23307;BME280;11822;52.470;10.688;2022-10-16T09:52:14;100780.41;;;18.43;60.16
23307;BME280;11822;52.470;10.688;2022-10-16T09:54:49;100786.75;;;18.48;60.18
23307;BME280;11822;52.470;10.688;2022-10-16T09:57:15;100793.13;;;18.52;59.88
23307;BME280;11822;52.470;10.688;2022-10-16T09:59:47;100796.31;;;18.57;60.08
23307;BME280;11822;52.470;10.688;2022-10-16T10:02:13;100797.53;;;18.64;59.75
23307;BME280;11822;52.470;10.688;2022-10-16T10:04:48;100786.09;;;18.69;59.57
23307;BME280;11822;52.470;10.688;2022-10-16T10:07:18;100784.94;;;18.73;59.04
23307;BME280;11822;52.470;10.688;2022-10-16T10:09:44;100798.41;;;18.79;59.21
23307;BME280;11822;52.470;10.688;2022-10-16T10:14:46;100783.06;;;18.88;58.30
23307;BME280;11822;52.470;10.688;2022-10-16T10:17:13;100796.56;;;18.94;58.00
23307;BME280;11822;52.470;10.688;2022-10-16T10:19:57;100801.75;;;18.99;57.94
23307;BME280;11822;52.470;10.688;2022-10-16T10:22:39;100800.97;;;19.05;57.90
23307;BME280;11822;52.470;10.688;2022-10-16T10:27:46;100805.41;;;19.25;57.13
23307;BME280;11822;52.470;10.688;2022-10-16T10:32:46;100801.94;;;19.39;56.92
23307;BME280;11822;52.470;10.688;2022-10-16T10:35:15;100805.13;;;19.44;56.75
23307;BME280;11822;52.470;10.688;2022-10-16T10:37:47;100805.13;;;19.48;56.99
23307;BME280;11822;52.470;10.688;2022-10-16T10:47:53;100809.97;;;19.80;56.21
23307;BME280;11822;52.470;10.688;2022-10-16T10:50:36;100807.25;;;19.95;55.64
23307;BME280;11822;52.470;10.688;2022-10-16T10:55:54;100802.53;;;20.10;54.06
23307;BME280;11822;52.470;10.688;2022-10-16T11:01:17;100819.16;;;20.10;53.79
23307;BME280;11822;52.470;10.688;2022-10-16T11:06:19;100829.88;;;20.11;53.87
23307;BME280;11822;52.470;10.688;2022-10-16T11:08:53;100842.16;;;20.17;53.46
23307;BME280;11822;52.470;10.688;2022-10-16T11:14:29;100842.56;;;20.19;52.75
23307;BME280;11822;52.470;10.688;2022-10-16T11:17:01;100847.69;;;20.14;52.42
23307;BME280;11822;52.470;10.688;2022-10-16T11:19:40;100841.34;;;20.06;52.37
23307;BME280;11822;52.470;10.688;2022-10-16T11:22:26;100840.94;;;19.97;52.77
23307;BME280;11822;52.470;10.688;2022-10-16T11:27:37;100852.34;;;19.84;52.77
23307;BME280;11822;52.470;10.688;2022-10-16T11:30:05;100844.41;;;19.79;52.25
23307;BME280;11822;52.470;10.688;2022-10-16T11:32:32;100846.41;;;19.78;52.39
23307;BME280;11822;52.470;10.688;2022-10-16T11:35:11;100856.34;;;19.87;52.41
23307;BME280;11822;52.470;10.688;2022-10-16T11:37:41;100867.88;;;20.00;52.04
23307;BME280;11822;52.470;10.688;2022-10-16T11:40:19;100846.91;;;20.06;51.64
23307;BME280;11822;52.470;10.688;2022-10-16T11:42:46;100856.00;;;20.06;50.93
23307;BME280;11822;52.470;10.688;2022-10-16T11:45:24;100867.09;;;20.06;51.46
23307;BME280;11822;52.470;10.688;2022-10-16T11:47:53;100867.50;;;20.08;51.35
23307;BME280;11822;52.470;10.688;2022-10-16T11:55:29;100863.91;;;20.04;50.98
23307;BME280;11822;52.470;10.688;2022-10-16T11:58:07;100859.94;;;20.05;50.60
23307;BME280;11822;52.470;10.688;2022-10-16T12:00:40;100854.41;;;20.05;50.58
23307;BME280;11822;52.470;10.688;2022-10-16T12:03:19;100854.81;;;20.07;50.87
23307;BME280;11822;52.470;10.688;2022-10-16T12:08:14;100869.47;;;20.08;50.26
23307;BME280;11822;52.470;10.688;2022-10-16T12:10:41;100856.81;;;20.07;50.22
23307;BME280;11822;52.470;10.688;2022-10-16T12:15:50;100868.66;;;20.00;50.34
23307;BME280;11822;52.470;10.688;2022-10-16T12:18:22;100872.22;;;19.97;50.67
23307;BME280;11822;52.470;10.688;2022-10-16T12:20:54;100881.31;;;19.90;50.52
23307;BME280;11822;52.470;10.688;2022-10-16T12:23:23;100876.13;;;19.85;50.65
23307;BME280;11822;52.470;10.688;2022-10-16T12:25:53;100882.44;;;19.78;51.13
23307;BME280;11822;52.470;10.688;2022-10-16T12:28:20;100888.34;;;19.73;50.93
23307;BME280;11822;52.470;10.688;2022-10-16T12:30:52;100882.38;;;19.68;51.23
23307;BME280;11822;52.470;10.688;2022-10-16T12:33:25;100886.38;;;19.70;51.08
23307;BME280;11822;52.470;10.688;2022-10-16T12:35:51;100885.59;;;19.73;51.22
23307;BME280;11822;52.470;10.688;2022-10-16T12:38:18;100884.41;;;19.78;50.83
23307;BME280;11822;52.470;10.688;2022-10-16T12:40:44;100890.75;;;19.82;50.96
23307;BME280;11822;52.470;10.688;2022-10-16T12:48:34;100888.84;;;19.93;50.30
23307;BME280;11822;52.470;10.688;2022-10-16T12:51:12;100889.63;;;19.94;50.08
23307;BME280;11822;52.470;10.688;2022-10-16T12:53:37;100894.38;;;19.93;50.22
23307;BME280;11822;52.470;10.688;2022-10-16T12:56:04;100903.09;;;19.92;50.35
23307;BME280;11822;52.470;10.688;2022-10-16T13:01:20;100901.88;;;19.86;50.42
23307;BME280;11822;52.470;10.688;2022-10-16T13:09:02;100902.19;;;19.70;50.70
23307;BME280;11822;52.470;10.688;2022-10-16T13:14:15;100908.09;;;19.61;50.78
23307;BME280;11822;52.470;10.688;2022-10-16T13:19:24;100915.63;;;19.64;50.90
23307;BME280;11822;52.470;10.688;2022-10-16T13:29:12;100931.22;;;19.90;50.64
23307;BME280;11822;52.470;10.688;2022-10-16T13:31:38;100926.06;;;19.96;50.57
23307;BME280;11822;52.470;10.688;2022-10-16T13:34:04;100933.22;;;20.04;50.19
23307;BME280;11822;52.470;10.688;2022-10-16T13:36:34;100940.78;;;20.07;50.14
23307;BME280;11822;52.470;10.688;2022-10-16T13:39:10;100941.59;;;20.08;49.91
23307;BME280;11822;52.470;10.688;2022-10-16T13:41:36;100952.28;;;20.10;50.06
23307;BME280;11822;52.470;10.688;2022-10-16T13:44:02;100951.88;;;20.11;49.88
23307;BME280;11822;52.470;10.688;2022-10-16T13:46:27;100949.53;;;20.13;49.86
23307;BME280;11822;52.470;10.688;2022-10-16T13:49:01;100945.56;;;20.18;49.58
23307;BME280;11822;52.470;10.688;2022-10-16T13:51:26;100949.94;;;20.22;49.58
23307;BME280;11822;52.470;10.688;2022-10-16T13:53:52;100940.81;;;20.22;49.49
23307;BME280;11822;52.470;10.688;2022-10-16T13:56:20;100952.31;;;20.20;49.70
23307;BME280;11822;52.470;10.688;2022-10-16T13:58:46;100949.16;;;20.18;49.54
23307;BME280;11822;52.470;10.688;2022-10-16T14:01:25;100947.56;;;20.17;49.74
23307;BME280;11822;52.470;10.688;2022-10-16T14:03:51;100957.84;;;20.13;49.51
23307;BME280;11822;52.470;10.688;2022-10-16T14:06:18;100944.75;;;20.10;49.87
23307;BME280;11822;52.470;10.688;2022-10-16T14:08:48;100957.41;;;20.07;49.82
23307;BME280;11822;52.470;10.688;2022-10-16T14:11:20;100959.78;;;20.05;49.63
23307;BME280;11822;52.470;10.688;2022-10-16T14:19:06;100956.19;;;20.01;49.97
23307;BME280;11822;52.470;10.688;2022-10-16T14:21:37;100960.97;;;20.01;49.89